Flight Number: EUR3087 Duration: 11:30
Departure: Bangkok Suvarnabhumi (VTBS) at 06:30 Distance: 5167 Nm
Arrival: Gatwick Airport (EGKK) at 18:00 Equipment: B747

Weather Information
Chon Buri, Thailand (VTBS) 13-22N 100-59E 2M Jan 22, 2018 - 03:00 AM EST / 2018.01.22 0800 UTC
Wind: from the ENE (070 degrees) at 6 MPH (5 KT) (direction variable):0
Visibility: greater than 7 mile(s):0
Sky conditions: mostly clear Temperature: 91 F (33 C) Dew Point: 64 F (18 C) Relative Humidity: 41% Pressure (altimeter): 29.71 in. Hg (1006 hPa)
ob: VTBS 220800Z 07005KT 020V100 9999 FEW030 33/18 Q1006 NOSIG cycle: 8
Sunrise: 23:47 Sunset: 11:09 (UTC)

London / Gatwick Airport, United Kingdom (EGKK) 51-09N 000-11W 0M Jan 22, 2018 - 02:50 AM EST / 2018.01.22 0750 UTC
Wind: from the WNW (290 degrees) at 6 MPH (5 KT):0
Visibility: 5 mile(s):0
Sky conditions: mostly clear Weather: light rain Temperature: 46 F (8 C) Dew Point: 44 F (7 C) Relative Humidity: 93% Pressure (altimeter): 29.77 in. Hg (1008 hPa)
ob: EGKK 220750Z 29005KT 9000 -RA FEW027 08/07 Q1008 cycle: 8
Sunrise: 07:54 Sunset: 16:30 (UTC)

TAF:2018/01/22 06:15 TAF EGKK 220509Z 2206/2312 26012KT 9999 SCT030 PROB30 TEMPO 2206/2210 8000 -RA BKN014 BECMG 2221/2224 20008KT PROB30 TEMPO 2303/2305 BKN008 BECMG 2305/2308 6000 -RA BKN008 TEMPO 2307/2312 22015G25KT 3000 RADZ BKN004

This route has never been flown.

Route map